Time;durP1;ratioP1;P1;durP2;ratioP2;P2;SDS_P1;SDS_P2;PMS_P1;PMS_P2;Temp;Humidity;BMP_temperature;BMP_pressure;BME280_temperature;BME280_humidity;BME280_pressure;Samples;Min_cycle;Max_cycle;Signal;HPM_P1;HPM_P2
2023/07/28 00:02:07;;;;;;;1.10;0.80;;;16.80;99.90;;;;;;5011181;28;20660;-73
2023/07/28 00:04:37;;;;;;;1.33;0.77;;;16.80;99.90;;;;;;5011176;28;20178;-73
2023/07/28 00:07:03;;;;;;;0.98;0.63;;;16.70;99.90;;;;;;5011163;28;20194;-72
2023/07/28 00:09:29;;;;;;;0.95;0.75;;;16.70;99.90;;;;;;5009583;28;20229;-73
2023/07/28 00:11:59;;;;;;;1.40;0.70;;;16.70;99.90;;;;;;5010865;28;20182;-72
2023/07/28 00:14:25;;;;;;;1.67;0.80;;;16.80;99.90;;;;;;5010927;28;20199;-73
2023/07/28 00:16:56;;;;;;;1.98;0.85;;;16.80;99.90;;;;;;5011224;28;20189;-72
2023/07/28 00:19:21;;;;;;;2.35;0.70;;;16.80;99.90;;;;;;5011209;28;20229;-72
2023/07/28 00:21:48;;;;;;;1.08;0.80;;;16.80;99.90;;;;;;5011242;28;20175;-73
2023/07/28 00:24:14;;;;;;;2.58;0.80;;;16.80;99.90;;;;;;5011153;28;20186;-74
2023/07/28 00:26:40;;;;;;;1.75;0.75;;;16.80;99.90;;;;;;5011008;28;20174;-74
2023/07/28 00:29:06;;;;;;;2.65;1.00;;;16.80;99.90;;;;;;5010972;28;20175;-75
2023/07/28 00:31:32;;;;;;;2.30;0.90;;;16.90;99.90;;;;;;5010862;28;20268;-73
2023/07/28 00:33:58;;;;;;;3.10;0.90;;;16.90;99.90;;;;;;5011041;28;20265;-73
2023/07/28 00:36:23;;;;;;;2.35;1.27;;;17.00;99.90;;;;;;5011048;28;20181;-74
2023/07/28 00:38:49;;;;;;;2.65;0.80;;;16.90;99.90;;;;;;5010994;28;20181;-71
2023/07/28 00:41:15;;;;;;;1.13;0.80;;;16.90;99.90;;;;;;5012564;28;20175;-74
2023/07/28 00:43:40;;;;;;;1.73;1.10;;;16.90;99.90;;;;;;5013522;28;20648;-73
2023/07/28 00:46:06;;;;;;;1.52;1.00;;;16.90;99.90;;;;;;5014679;28;20167;-74
2023/07/28 00:48:32;;;;;;;6.00;1.10;;;16.90;99.90;;;;;;5015198;28;20210;-74
2023/07/28 00:50:59;;;;;;;3.28;1.50;;;;;;;;;;5014706;28;20611;-74
2023/07/28 00:53:24;;;;;;;0.95;0.85;;;16.90;99.90;;;;;;5014796;28;20177;-74
2023/07/28 00:55:51;;;;;;;7.30;1.20;;;16.70;99.90;;;;;;5014767;28;20171;-74
2023/07/28 00:58:16;;;;;;;1.77;1.15;;;16.80;99.90;;;;;;5014689;28;20162;-74
2023/07/28 01:00:42;;;;;;;3.05;1.40;;;17.30;99.90;;;;;;5014588;28;20194;-74
2023/07/28 01:03:08;;;;;;;4.03;1.23;;;;;;;;;;5014621;28;20194;-74
2023/07/28 01:05:56;;;;;;;1.98;0.98;;;16.90;99.90;;;;;;5014460;28;20182;-74
2023/07/28 01:08:38;;;;;;;1.92;1.10;;;16.80;99.90;;;;;;5014429;28;20732;-74
2023/07/28 01:11:04;;;;;;;1.80;1.10;;;17.10;99.90;;;;;;5014426;28;20602;-72
2023/07/28 01:13:29;;;;;;;3.08;1.10;;;16.70;99.90;;;;;;5014328;28;20253;-72
2023/07/28 01:15:55;;;;;;;2.72;1.13;;;16.90;99.90;;;;;;5014633;28;20175;-72
2023/07/28 01:18:21;;;;;;;3.20;1.05;;;16.90;99.90;;;;;;5014320;28;20648;-73
2023/07/28 01:20:55;;;;;;;1.67;1.10;;;16.90;99.90;;;;;;5012872;28;20186;-72
2023/07/28 01:23:36;;;;;;;2.35;1.30;;;16.90;99.90;;;;;;5014325;28;20225;-72
2023/07/28 01:26:12;;;;;;;2.90;1.20;;;16.90;99.90;;;;;;5014110;28;20175;-73
2023/07/28 01:28:40;;;;;;;1.80;1.20;;;16.90;99.90;;;;;;5014157;28;20178;-72
2023/07/28 01:31:07;;;;;;;1.63;0.98;;;16.80;99.90;;;;;;5012601;28;20309;-72
2023/07/28 01:33:33;;;;;;;2.55;0.90;;;16.90;99.90;;;;;;5014010;28;20224;-73
2023/07/28 01:36:02;;;;;;;2.03;0.90;;;16.90;99.90;;;;;;5014033;28;20253;-72
2023/07/28 01:38:28;;;;;;;2.55;0.85;;;16.80;99.90;;;;;;5014022;28;20672;-72
2023/07/28 01:40:54;;;;;;;2.03;0.90;;;16.90;99.90;;;;;;5013907;28;20174;-72
2023/07/28 01:43:20;;;;;;;1.95;0.80;;;17.00;99.90;;;;;;5013916;28;20205;-72
2023/07/28 01:45:46;;;;;;;2.63;0.80;;;16.80;99.90;;;;;;5013819;28;20593;-72
2023/07/28 01:48:12;;;;;;;1.48;0.90;;;;;;;;;;5013692;28;20259;-72
2023/07/28 01:50:38;;;;;;;5.03;0.80;;;16.50;99.90;;;;;;5008886;28;20578;-72
2023/07/28 01:53:07;;;;;;;1.15;0.70;;;16.80;99.90;;;;;;4993817;28;20175;-72
2023/07/28 01:55:32;;;;;;;3.55;0.60;;;16.90;99.90;;;;;;4994102;28;20183;-72
2023/07/28 01:58:00;;;;;;;0.90;0.65;;;16.90;99.90;;;;;;4994034;28;20693;-73
2023/07/28 02:00:26;;;;;;;4.28;0.70;;;16.70;99.90;;;;;;4992663;28;20171;-73
2023/07/28 02:02:52;;;;;;;2.10;0.63;;;16.90;99.90;;;;;;5004221;28;20175;-73
2023/07/28 02:05:18;;;;;;;2.63;0.60;;;16.90;99.90;;;;;;5007070;28;20210;-73
2023/07/28 02:07:44;;;;;;;2.17;0.88;;;16.90;99.90;;;;;;5007083;28;20645;-73
2023/07/28 02:10:10;;;;;;;2.60;0.80;;;17.00;99.90;;;;;;5012921;28;20233;-74
2023/07/28 02:12:37;;;;;;;1.02;0.52;;;16.90;99.90;;;;;;4993867;28;20183;-73
2023/07/28 02:15:03;;;;;;;3.70;0.65;;;17.00;99.90;;;;;;4998859;28;20174;-73
2023/07/28 02:17:28;;;;;;;2.00;1.00;;;16.90;99.90;;;;;;5013147;28;20201;-73
2023/07/28 02:19:54;;;;;;;4.25;0.93;;;16.90;99.90;;;;;;5013375;28;20657;-74
2023/07/28 02:22:20;;;;;;;1.38;1.05;;;16.90;99.90;;;;;;5012666;28;20179;-74
2023/07/28 02:24:45;;;;;;;1.40;0.90;;;16.90;99.90;;;;;;5013091;28;20281;-73
2023/07/28 02:27:11;;;;;;;1.63;0.90;;;17.00;99.90;;;;;;5013519;28;20240;-74
2023/07/28 02:29:36;;;;;;;1.27;0.70;;;16.80;99.90;;;;;;5012932;28;20170;-73
2023/07/28 02:32:02;;;;;;;1.65;0.93;;;16.90;99.90;;;;;;5013212;28;20183;-75
2023/07/28 02:34:28;;;;;;;3.15;1.00;;;16.90;99.90;;;;;;5009800;28;20532;-73
2023/07/28 02:36:53;;;;;;;2.47;0.98;;;17.20;99.90;;;;;;4993192;28;20544;-73
2023/07/28 02:39:20;;;;;;;2.53;1.27;;;16.80;99.90;;;;;;4993201;28;20630;-73
2023/07/28 02:41:46;;;;;;;3.30;1.10;;;16.80;99.90;;;;;;5009245;28;20309;-73
2023/07/28 02:44:11;;;;;;;5.47;1.20;;;16.90;99.90;;;;;;4992899;28;20656;-73
2023/07/28 02:46:37;;;;;;;4.07;1.20;;;16.80;99.90;;;;;;5006804;28;20175;-73
2023/07/28 02:49:03;;;;;;;2.75;1.20;;;17.10;99.90;;;;;;5012792;28;20704;-73
2023/07/28 02:51:30;;;;;;;2.08;1.20;;;16.90;99.90;;;;;;4998288;28;20206;-73
2023/07/28 02:53:55;;;;;;;3.95;1.42;;;16.90;99.90;;;;;;4992710;28;20652;-73
2023/07/28 02:56:21;;;;;;;2.28;1.00;;;16.80;99.90;;;;;;4992608;28;20266;-73
2023/07/28 02:58:48;;;;;;;2.65;1.15;;;16.90;99.90;;;;;;4997340;28;20179;-73
2023/07/28 03:01:14;;;;;;;1.85;1.10;;;16.80;99.90;;;;;;4994303;28;20210;-73
2023/07/28 03:03:39;;;;;;;1.95;0.50;;;16.90;99.90;;;;;;4991926;28;20836;-72
2023/07/28 03:06:05;;;;;;;1.65;0.80;;;16.80;99.90;;;;;;4992527;28;20270;-72
2023/07/28 03:08:31;;;;;;;2.67;0.80;;;16.80;99.90;;;;;;5010148;28;20170;-72
2023/07/28 03:11:02;;;;;;;2.28;0.60;;;16.80;99.90;;;;;;5011639;28;20230;-72
2023/07/28 03:13:28;;;;;;;0.90;0.60;;;16.80;99.90;;;;;;5002708;28;20174;-72
2023/07/28 03:15:53;;;;;;;1.23;0.50;;;16.70;99.90;;;;;;4992600;28;20262;-72
2023/07/28 03:18:19;;;;;;;1.95;0.60;;;16.80;99.90;;;;;;4997012;28;20258;-71
2023/07/28 03:20:46;;;;;;;0.98;0.60;;;16.70;99.90;;;;;;5008459;28;20201;-72
2023/07/28 03:23:12;;;;;;;1.83;0.65;;;16.80;99.90;;;;;;5012095;28;20171;-73
2023/07/28 03:25:37;;;;;;;2.20;0.90;;;16.80;99.90;;;;;;5009141;28;20521;-72
2023/07/28 03:28:03;;;;;;;1.48;0.80;;;16.80;99.90;;;;;;4994680;28;20657;-72
2023/07/28 03:30:28;;;;;;;2.08;0.80;;;16.80;99.90;;;;;;4998631;28;20299;-71
2023/07/28 03:32:54;;;;;;;1.35;0.77;;;16.70;99.90;;;;;;4992105;28;20175;-72
2023/07/28 03:35:20;;;;;;;2.17;0.68;;;16.80;99.90;;;;;;4992170;28;20175;-71
2023/07/28 03:37:45;;;;;;;2.03;0.98;;;16.70;99.90;;;;;;4992111;28;20171;-73
2023/07/28 03:40:11;;;;;;;0.98;0.88;;;16.70;99.90;;;;;;4993496;28;20225;-73
2023/07/28 03:42:37;;;;;;;3.65;1.00;;;16.80;99.90;;;;;;5000529;28;20258;-73
2023/07/28 03:45:03;;;;;;;2.22;1.40;;;16.80;99.90;;;;;;5011694;28;20261;-73
2023/07/28 03:47:28;;;;;;;2.22;1.10;;;16.80;99.90;;;;;;4999624;28;20285;-72
2023/07/28 03:49:54;;;;;;;4.13;1.20;;;16.70;99.90;;;;;;4991903;28;20190;-72
2023/07/28 03:52:19;;;;;;;3.42;1.05;;;16.80;99.90;;;;;;4991959;28;20650;-72
2023/07/28 03:54:45;;;;;;;2.92;0.98;;;16.70;99.90;;;;;;4991929;28;20194;-71
2023/07/28 03:57:11;;;;;;;1.83;1.02;;;16.70;99.90;;;;;;4991603;28;20518;-71
2023/07/28 03:59:37;;;;;;;1.60;0.80;;;16.70;99.90;;;;;;5003489;28;20189;-72
2023/07/28 04:02:02;;;;;;;1.60;0.75;;;16.60;99.90;;;;;;5011360;28;20217;-71
2023/07/28 04:04:28;;;;;;;3.42;1.00;;;16.60;99.90;;;;;;5011349;28;20241;-71
2023/07/28 04:06:54;;;;;;;3.13;0.77;;;;;;;;;;5011372;28;20189;-71
2023/07/28 04:09:20;;;;;;;3.50;0.80;;;16.40;99.90;;;;;;5011171;28;20264;-71
2023/07/28 04:11:46;;;;;;;2.35;1.00;;;16.60;99.90;;;;;;5011190;28;20685;-72
2023/07/28 04:14:12;;;;;;;2.10;1.10;;;16.60;99.90;;;;;;5011146;28;20171;-72
2023/07/28 04:16:38;;;;;;;2.33;1.10;;;16.70;99.90;;;;;;5011195;28;20198;-71
2023/07/28 04:19:03;;;;;;;4.75;1.08;;;16.60;99.90;;;;;;5011104;28;20205;-71
2023/07/28 04:21:29;;;;;;;2.45;0.93;;;16.60;99.90;;;;;;5011221;28;20174;-72
2023/07/28 04:23:55;;;;;;;1.75;1.00;;;16.70;99.90;;;;;;5011084;28;20174;-71
2023/07/28 04:26:20;;;;;;;1.55;0.80;;;16.60;99.90;;;;;;5011067;28;20273;-71
2023/07/28 04:28:46;;;;;;;3.38;1.02;;;16.60;99.90;;;;;;5011060;28;20198;-71
2023/07/28 04:31:13;;;;;;;2.17;1.02;;;16.60;99.90;;;;;;5010933;28;20213;-72
2023/07/28 04:33:41;;;;;;;3.70;0.70;;;16.60;99.90;;;;;;5010950;28;20615;-71
2023/07/28 04:36:07;;;;;;;1.30;0.70;;;16.50;99.90;;;;;;5010931;28;20661;-72
2023/07/28 04:38:32;;;;;;;3.83;0.85;;;16.40;99.90;;;;;;5010542;28;20185;-72
2023/07/28 04:40:58;;;;;;;1.17;0.70;;;16.90;99.90;;;;;;5010892;28;20166;-71
2023/07/28 04:43:23;;;;;;;2.60;0.65;;;16.60;99.90;;;;;;5003241;28;20230;-73
2023/07/28 04:45:49;;;;;;;1.25;0.80;;;16.60;99.90;;;;;;4999779;28;20206;-72
2023/07/28 04:48:15;;;;;;;1.98;0.82;;;16.70;99.90;;;;;;5010599;28;20179;-71
2023/07/28 04:50:41;;;;;;;0.98;0.60;;;;;;;;;;5000987;28;20265;-71
2023/07/28 04:53:06;;;;;;;3.90;0.70;;;16.30;99.90;;;;;;5002375;28;20931;-72
2023/07/28 04:55:32;;;;;;;4.47;1.10;;;;;;;;;;5000009;28;20274;-72
2023/07/28 04:57:58;;;;;;;1.75;0.70;;;16.60;99.90;;;;;;5002020;28;20222;-72
2023/07/28 05:00:23;;;;;;;1.65;0.95;;;16.40;99.90;;;;;;4989964;28;20203;-73
2023/07/28 05:02:49;;;;;;;2.25;0.73;;;16.50;99.90;;;;;;5002618;28;20187;-72
2023/07/28 05:05:15;;;;;;;2.03;0.77;;;16.80;99.90;;;;;;5009533;28;20656;-72
2023/07/28 05:07:41;;;;;;;1.10;1.00;;;;;;;;;;5008497;28;20657;-73
2023/07/28 05:10:08;;;;;;;1.60;0.75;;;16.50;99.90;;;;;;5008629;28;20637;-71
2023/07/28 05:12:34;;;;;;;2.05;0.77;;;16.50;99.90;;;;;;5010493;28;20178;-72
2023/07/28 05:14:59;;;;;;;2.15;0.90;;;16.60;99.90;;;;;;5009032;28;20649;-71
2023/07/28 05:17:25;;;;;;;2.70;1.02;;;16.60;99.90;;;;;;5010516;28;20254;-72
2023/07/28 05:19:51;;;;;;;2.00;0.80;;;16.60;99.90;;;;;;5010399;28;20269;-72
2023/07/28 05:22:16;;;;;;;3.50;1.20;;;16.60;99.90;;;;;;5008946;28;20185;-72
2023/07/28 05:24:43;;;;;;;2.67;1.13;;;16.60;99.90;;;;;;5010280;28;20236;-72
2023/07/28 05:27:09;;;;;;;2.85;1.20;;;16.60;99.90;;;;;;5011745;28;20186;-72
2023/07/28 05:29:35;;;;;;;2.13;1.08;;;16.70;99.90;;;;;;5013902;28;20655;-73
2023/07/28 05:32:00;;;;;;;4.65;1.15;;;16.70;99.90;;;;;;5013853;28;20602;-73
2023/07/28 05:34:26;;;;;;;5.43;1.27;;;16.90;99.90;;;;;;5013881;28;20166;-71
2023/07/28 05:36:52;;;;;;;5.55;1.23;;;16.70;99.90;;;;;;5012588;28;20182;-72
2023/07/28 05:39:17;;;;;;;4.25;1.10;;;16.70;99.90;;;;;;5013853;28;20274;-71
2023/07/28 05:41:43;;;;;;;4.13;1.30;;;;;;;;;;5013660;28;20185;-72
2023/07/28 05:44:09;;;;;;;4.90;1.40;;;16.80;99.90;;;;;;5013701;28;20178;-72
2023/07/28 05:46:34;;;;;;;3.85;1.00;;;16.80;99.90;;;;;;5013746;28;20650;-72
2023/07/28 05:49:00;;;;;;;2.67;0.90;;;16.90;99.90;;;;;;5013717;28;20638;-72
2023/07/28 05:51:26;;;;;;;2.35;1.02;;;17.00;99.90;;;;;;5012235;28;20242;-74
2023/07/28 05:53:52;;;;;;;1.55;0.90;;;17.00;99.90;;;;;;5013494;28;20177;-72
2023/07/28 05:56:18;;;;;;;3.70;0.90;;;17.00;99.90;;;;;;5013482;28;20183;-72
2023/07/28 05:58:45;;;;;;;1.90;0.70;;;17.00;99.90;;;;;;5012592;28;20233;-72
2023/07/28 06:01:11;;;;;;;2.65;1.10;;;16.80;99.90;;;;;;4997968;28;20186;-73
2023/07/28 06:03:36;;;;;;;1.98;0.70;;;17.00;99.90;;;;;;5009358;28;20179;-71
2023/07/28 06:06:02;;;;;;;1.50;0.80;;;16.90;99.90;;;;;;5005358;28;20202;-72
2023/07/28 06:08:28;;;;;;;3.10;1.00;;;17.20;99.90;;;;;;5013258;28;20175;-71
2023/07/28 06:10:54;;;;;;;1.05;0.65;;;17.10;99.90;;;;;;4994554;28;20230;-74
2023/07/28 06:13:20;;;;;;;3.50;0.90;;;17.30;99.90;;;;;;4994033;28;20172;-72
2023/07/28 06:15:46;;;;;;;2.17;0.98;;;17.10;99.90;;;;;;4993679;28;20618;-73
2023/07/28 06:18:12;;;;;;;5.70;1.00;;;17.40;99.90;;;;;;4993458;28;20638;-72
2023/07/28 06:20:38;;;;;;;3.47;1.08;;;;;;;;;;4993579;28;20179;-72
2023/07/28 06:23:04;;;;;;;3.70;1.08;;;;;;;;;;5011730;28;20174;-72
2023/07/28 06:25:30;;;;;;;2.47;0.70;;;17.20;99.90;;;;;;5012818;28;20181;-72
2023/07/28 06:27:56;;;;;;;2.42;0.70;;;;;;;;;;5012956;28;20656;-72
2023/07/28 06:30:22;;;;;;;1.95;0.90;;;17.70;99.90;;;;;;5012715;28;20710;-72
2023/07/28 06:32:47;;;;;;;4.70;1.05;;;17.60;99.90;;;;;;5012881;28;20261;-72
2023/07/28 06:35:13;;;;;;;6.50;0.98;;;17.70;99.90;;;;;;5012716;28;20652;-73
2023/07/28 06:37:38;;;;;;;3.33;0.80;;;17.70;99.90;;;;;;5012291;28;20774;-73
2023/07/28 06:40:06;;;;;;;7.22;1.15;;;17.70;99.90;;;;;;5012120;28;20207;-73
2023/07/28 06:42:33;;;;;;;2.70;0.95;;;17.80;99.90;;;;;;5012547;28;20585;-74
2023/07/28 06:44:59;;;;;;;3.00;0.90;;;17.70;99.90;;;;;;5012588;28;20166;-75
2023/07/28 06:47:25;;;;;;;2.45;0.90;;;17.70;99.90;;;;;;5012450;28;20171;-72
2023/07/28 06:49:51;;;;;;;1.98;0.85;;;17.80;99.90;;;;;;5011627;28;20166;-72
2023/07/28 06:52:16;;;;;;;4.20;1.00;;;17.90;99.90;;;;;;5012288;28;20278;-73
2023/07/28 06:54:42;;;;;;;1.85;0.80;;;17.90;99.90;;;;;;5012353;28;20175;-73
2023/07/28 06:57:07;;;;;;;3.35;0.82;;;19.40;99.90;;;;;;5012211;28;20171;-73
2023/07/28 06:59:33;;;;;;;1.45;0.80;;;18.00;99.90;;;;;;5010778;28;20710;-72
2023/07/28 07:01:59;;;;;;;2.75;0.80;;;17.90;99.90;;;;;;5012092;28;20182;-73
2023/07/28 07:04:24;;;;;;;1.48;0.75;;;18.00;99.90;;;;;;5012094;28;20257;-73
2023/07/28 07:06:50;;;;;;;3.08;1.10;;;18.00;99.90;;;;;;5011829;28;20171;-72
2023/07/28 07:09:15;;;;;;;2.13;0.90;;;18.00;99.90;;;;;;5000854;28;20245;-72
2023/07/28 07:11:41;;;;;;;2.53;0.65;;;18.00;99.90;;;;;;5009807;28;20214;-72
2023/07/28 07:14:07;;;;;;;3.38;1.00;;;17.80;99.90;;;;;;5002503;28;20183;-73
2023/07/28 07:16:33;;;;;;;1.10;1.00;;;17.90;99.90;;;;;;4992470;28;20202;-72
2023/07/28 07:18:59;;;;;;;2.22;0.90;;;18.00;99.90;;;;;;5005780;28;20369;-73
2023/07/28 07:21:26;;;;;;;3.17;0.93;;;18.10;99.90;;;;;;5009816;28;20595;-73
2023/07/28 07:23:52;;;;;;;1.40;0.93;;;;;;;;;;5011767;28;20649;-72
2023/07/28 07:26:17;;;;;;;3.83;1.17;;;17.90;99.90;;;;;;4998604;28;20179;-72
2023/07/28 07:28:43;;;;;;;1.95;1.02;;;18.00;99.90;;;;;;4992279;28;20317;-72
2023/07/28 07:31:13;;;;;;;2.60;1.20;;;18.10;99.90;;;;;;5005661;28;20211;-72
2023/07/28 07:33:39;;;;;;;3.97;0.90;;;18.00;99.90;;;;;;5011664;28;20657;-72
2023/07/28 07:36:05;;;;;;;4.55;1.17;;;17.90;99.90;;;;;;5008614;28;20222;-72
2023/07/28 07:38:30;;;;;;;3.67;1.17;;;18.30;99.90;;;;;;5007329;28;20221;-73
2023/07/28 07:40:56;;;;;;;2.03;1.15;;;;;;;;;;5011260;28;20197;-72
2023/07/28 07:43:22;;;;;;;2.72;1.00;;;;;;;;;;5007595;28;20172;-73
2023/07/28 07:45:51;;;;;;;3.15;1.00;;;;;;;;;;5004026;28;20257;-73
2023/07/28 07:48:16;;;;;;;1.77;0.90;;;18.70;99.90;;;;;;5011363;28;20700;-73
2023/07/28 07:50:42;;;;;;;3.47;0.90;;;18.40;99.90;;;;;;5004943;28;20349;-74
2023/07/28 07:53:08;;;;;;;5.50;0.75;;;18.70;99.90;;;;;;4995958;28;20186;-73
2023/07/28 07:55:33;;;;;;;1.75;0.70;;;18.80;99.90;;;;;;5002472;28;20185;-73
2023/07/28 07:57:59;;;;;;;5.75;1.10;;;18.90;99.90;;;;;;5011502;28;20178;-73
2023/07/28 08:00:24;;;;;;;1.52;1.00;;;19.00;99.90;;;;;;4993572;28;20243;-73
2023/07/28 08:02:50;;;;;;;1.40;1.05;;;19.20;99.90;;;;;;4991587;28;20171;-74
2023/07/28 08:05:16;;;;;;;2.00;1.20;;;19.40;99.90;;;;;;4991881;28;20251;-73
2023/07/28 08:07:42;;;;;;;3.85;1.75;;;19.50;99.90;;;;;;4991313;28;20672;-74
2023/07/28 08:10:08;;;;;;;7.05;1.10;;;19.60;99.90;;;;;;5001474;28;20700;-73
2023/07/28 08:12:34;;;;;;;3.72;1.25;;;19.70;99.90;;;;;;4999487;28;20175;-73
2023/07/28 08:14:59;;;;;;;2.40;1.00;;;19.50;99.90;;;;;;4993543;28;20637;-74
2023/07/28 08:17:25;;;;;;;4.70;1.08;;;19.50;99.90;;;;;;5011208;28;20169;-73
2023/07/28 08:19:51;;;;;;;3.15;1.10;;;19.80;99.90;;;;;;5011118;28;20625;-73
2023/07/28 08:22:16;;;;;;;2.08;0.82;;;19.90;99.90;;;;;;5010328;28;20629;-74
2023/07/28 08:24:42;;;;;;;8.15;1.50;;;19.90;99.90;;;;;;5006312;28;20179;-74
2023/07/28 08:27:08;;;;;;;3.80;1.20;;;19.80;99.90;;;;;;5011338;28;20638;-74
2023/07/28 08:29:34;;;;;;;4.00;0.82;;;20.00;99.90;;;;;;5010637;28;20264;-74
2023/07/28 08:31:59;;;;;;;2.20;1.33;;;20.00;99.90;;;;;;5007061;28;20214;-74
2023/07/28 08:34:25;;;;;;;2.78;1.00;;;20.10;99.90;;;;;;4991907;28;20175;-73
2023/07/28 08:36:50;;;;;;;1.88;0.85;;;20.10;99.90;;;;;;5011151;28;20174;-74
2023/07/28 08:39:18;;;;;;;3.97;1.10;;;20.00;99.90;;;;;;5010285;28;20176;-73
2023/07/28 08:41:43;;;;;;;5.72;1.00;;;20.00;99.90;;;;;;5011310;28;20190;-74
2023/07/28 08:44:09;;;;;;;3.70;1.00;;;19.80;99.90;;;;;;5010945;28;20174;-74
2023/07/28 08:46:35;;;;;;;2.22;0.90;;;19.80;99.90;;;;;;5010821;28;20182;-75
2023/07/28 08:49:01;;;;;;;5.32;1.10;;;20.00;99.90;;;;;;5009225;28;20516;-73
2023/07/28 08:51:27;;;;;;;3.45;1.00;;;20.00;99.90;;;;;;5010721;28;20214;-73
2023/07/28 08:53:52;;;;;;;5.57;1.40;;;19.90;99.90;;;;;;5010875;28;20170;-73
2023/07/28 08:56:18;;;;;;;7.03;1.23;;;20.00;99.90;;;;;;5009540;28;20237;-73
2023/07/28 08:58:44;;;;;;;4.85;1.00;;;20.10;99.90;;;;;;5010756;28;20262;-74
2023/07/28 09:01:11;;;;;;;3.85;1.02;;;20.20;99.90;;;;;;5006919;28;20206;-74
2023/07/28 09:03:41;;;;;;;5.40;1.13;;;20.50;99.90;;;;;;5001144;28;20171;-75
2023/07/28 09:06:08;;;;;;;5.95;1.05;;;20.70;99.90;;;;;;4994384;28;20175;-72
2023/07/28 09:08:35;;;;;;;2.95;1.20;;;20.70;99.90;;;;;;5014383;28;20171;-73
2023/07/28 09:11:05;;;;;;;3.38;1.02;;;20.60;99.90;;;;;;4994665;28;20227;-73
2023/07/28 09:13:41;;;;;;;2.58;1.05;;;20.80;99.90;;;;;;4999811;28;20175;-73
2023/07/28 09:16:20;;;;;;;4.35;1.13;;;20.90;99.90;;;;;;5011993;28;20171;-74
2023/07/28 09:18:47;;;;;;;6.63;1.00;;;20.70;99.90;;;;;;5014356;28;20205;-72
2023/07/28 09:21:21;;;;;;;6.43;1.17;;;20.50;99.90;;;;;;5013457;28;20179;-71
2023/07/28 09:23:48;;;;;;;3.60;1.20;;;20.50;99.90;;;;;;5009731;28;20676;-72
2023/07/28 09:26:17;;;;;;;3.78;1.00;;;20.50;99.90;;;;;;5012169;28;20186;-71
2023/07/28 09:28:43;;;;;;;3.60;0.80;;;20.50;99.90;;;;;;5006853;28;20179;-73
2023/07/28 09:31:10;;;;;;;6.15;1.15;;;20.90;99.90;;;;;;4996397;28;20555;-72
2023/07/28 09:33:37;;;;;;;2.67;1.17;;;21.20;99.90;;;;;;5007519;28;20187;-72
2023/07/28 09:36:11;;;;;;;3.50;1.00;;;21.20;99.90;;;;;;4992708;28;20187;-71
2023/07/28 09:38:41;;;;;;;1.92;1.13;;;21.30;99.90;;;;;;5007829;28;20181;-71
2023/07/28 09:41:10;;;;;;;7.45;1.33;;;21.50;99.90;;;;;;5008590;28;20170;-71
2023/07/28 09:43:40;;;;;;;2.45;0.95;;;21.70;99.90;;;;;;5001797;28;20186;-70
2023/07/28 09:46:10;;;;;;;3.70;1.00;;;21.40;99.90;;;;;;5003002;28;20305;-70
2023/07/28 09:48:38;;;;;;;4.82;0.98;;;21.10;99.90;;;;;;4993947;28;20233;-72
2023/07/28 09:51:12;;;;;;;2.17;0.63;;;21.10;99.90;;;;;;4993616;28;20242;-71
2023/07/28 09:53:44;;;;;;;5.32;1.13;;;21.00;99.90;;;;;;4993585;28;20278;-72
2023/07/28 09:56:13;;;;;;;5.72;1.00;;;21.20;99.90;;;;;;4996379;28;20206;-72
2023/07/28 09:58:44;;;;;;;2.15;0.95;;;21.20;99.90;;;;;;5010559;28;20182;-74
2023/07/28 10:01:10;;;;;;;5.05;1.00;;;21.20;99.90;;;;;;4999507;28;20593;-72
2023/07/28 10:03:37;;;;;;;3.65;1.00;;;21.30;99.90;;;;;;5012559;28;20177;-72
2023/07/28 10:06:03;;;;;;;6.20;1.42;;;21.10;99.90;;;;;;5003394;28;20202;-71
2023/07/28 10:08:29;;;;;;;3.28;1.05;;;21.00;99.90;;;;;;4999759;28;20251;-72
2023/07/28 10:10:56;;;;;;;2.30;1.00;;;21.00;99.90;;;;;;5003961;28;20238;-70
2023/07/28 10:13:22;;;;;;;4.13;0.77;;;21.10;99.90;;;;;;4996780;28;20268;-71
2023/07/28 10:15:48;;;;;;;2.85;0.93;;;21.10;99.90;;;;;;5004378;28;20183;-71
2023/07/28 10:18:14;;;;;;;2.42;1.10;;;21.30;99.90;;;;;;4998512;28;20625;-70
2023/07/28 10:20:43;;;;;;;2.88;0.90;;;21.50;99.90;;;;;;5007747;28;20278;-71
2023/07/28 10:23:21;;;;;;;3.90;1.40;;;21.70;99.90;;;;;;5011038;28;20179;-70
2023/07/28 10:25:56;;;;;;;2.17;1.10;;;21.80;99.90;;;;;;5010977;28;20174;-70
2023/07/28 10:28:38;;;;;;;2.35;0.90;;;21.50;99.90;;;;;;5010019;28;20198;-70
2023/07/28 10:31:06;;;;;;;1.25;0.80;;;21.00;99.90;;;;;;4993558;28;20222;-71
2023/07/28 10:33:36;;;;;;;1.83;1.00;;;21.00;99.90;;;;;;5012145;28;20300;-71
2023/07/28 10:36:31;;;;;;;3.60;0.77;;;21.20;99.90;;;;;;5012653;28;20166;-70
2023/07/28 10:39:18;;;;;;;2.15;0.80;;;21.10;99.90;;;;;;5010323;28;20213;-72
2023/07/28 10:42:05;;;;;;;1.55;0.82;;;21.30;99.90;;;;;;5008888;28;20175;-71
2023/07/28 10:44:32;;;;;;;2.83;0.95;;;21.30;99.90;;;;;;5011373;28;20185;-70
2023/07/28 10:46:57;;;;;;;2.97;0.90;;;21.70;99.90;;;;;;5007297;28;20625;-70
2023/07/28 10:49:26;;;;;;;2.40;0.98;;;22.20;99.90;;;;;;4995739;28;20194;-71
2023/07/28 10:51:52;;;;;;;2.65;1.05;;;23.00;99.90;;;;;;4992889;28;20207;-71
2023/07/28 10:54:19;;;;;;;2.88;1.20;;;23.60;99.90;;;;;;4992267;28;20708;-70
2023/07/28 10:56:47;;;;;;;1.33;0.80;;;23.40;99.90;;;;;;4992778;28;20176;-71
2023/07/28 10:59:12;;;;;;;3.25;0.90;;;23.30;99.90;;;;;;5011298;28;20178;-73
2023/07/28 11:01:40;;;;;;;1.88;1.10;;;22.90;99.90;;;;;;4999376;28;20560;-73
2023/07/28 11:04:14;;;;;;;1.55;1.13;;;22.60;99.90;;;;;;4996858;28;20170;-71
2023/07/28 11:06:43;;;;;;;1.83;1.00;;;22.10;99.90;;;;;;4995682;28;20212;-74
2023/07/28 11:09:09;;;;;;;1.45;1.20;;;22.00;99.90;;;;;;4992341;28;20219;-73
2023/07/28 11:11:37;;;;;;;4.25;1.30;;;21.80;99.90;;;;;;4991276;28;20219;-74
2023/07/28 11:14:05;;;;;;;2.53;1.00;;;21.60;99.90;;;;;;5001568;28;20195;-73
2023/07/28 11:16:34;;;;;;;1.80;1.10;;;21.60;99.90;;;;;;5010450;28;20171;-72
2023/07/28 11:19:09;;;;;;;3.65;1.23;;;21.30;99.90;;;;;;5026815;28;20549;-72
2023/07/28 11:21:42;;;;;;;2.90;1.05;;;20.90;99.90;;;;;;5011895;28;20633;-71
2023/07/28 11:24:08;;;;;;;1.85;1.05;;;20.90;99.90;;;;;;5011488;28;20201;-72
2023/07/28 11:26:39;;;;;;;3.08;1.17;;;20.80;99.90;;;;;;5011583;28;20170;-74
2023/07/28 11:29:05;;;;;;;3.05;1.10;;;20.70;99.90;;;;;;5011718;28;20217;-74
2023/07/28 11:31:33;;;;;;;2.83;1.20;;;20.70;99.90;;;;;;5011880;28;20210;-74
2023/07/28 11:33:58;;;;;;;3.47;1.17;;;20.90;99.90;;;;;;5012107;28;20174;-73
2023/07/28 11:36:30;;;;;;;3.17;1.20;;;20.70;99.90;;;;;;5012090;28;20592;-73
2023/07/28 11:38:58;;;;;;;2.92;1.13;;;20.80;99.90;;;;;;5011651;28;20171;-73
2023/07/28 11:41:25;;;;;;;3.92;1.55;;;20.50;99.90;;;;;;5009878;28;20174;-74
2023/07/28 11:43:51;;;;;;;3.47;1.30;;;20.50;99.90;;;;;;5011679;28;20244;-73
2023/07/28 11:46:33;;;;;;;4.82;1.77;;;21.00;99.90;;;;;;5012380;28;20635;-73
2023/07/28 11:49:15;;;;;;;1.20;0.90;;;21.40;99.90;;;;;;5011430;28;20177;-72
2023/07/28 11:51:43;;;;;;;1.77;1.00;;;21.50;99.90;;;;;;5011273;28;20213;-73
2023/07/28 11:54:14;;;;;;;2.63;1.15;;;21.70;99.90;;;;;;5011393;28;20174;-73
2023/07/28 11:56:41;;;;;;;1.42;1.20;;;21.90;99.90;;;;;;5011421;28;20178;-74
2023/07/28 11:59:07;;;;;;;2.78;1.15;;;21.90;99.90;;;;;;5011513;28;20712;-73
2023/07/28 12:01:33;;;;;;;6.28;1.00;;;22.10;99.90;;;;;;5011353;28;20244;-71
2023/07/28 12:04:00;;;;;;;2.03;1.35;;;22.00;99.90;;;;;;5009848;28;20568;-73
2023/07/28 12:06:26;;;;;;;2.13;1.20;;;21.20;99.90;;;;;;5011256;28;20212;-73
2023/07/28 12:08:51;;;;;;;4.93;1.30;;;21.30;99.90;;;;;;5011072;28;20174;-72
2023/07/28 12:11:17;;;;;;;2.13;1.00;;;21.10;99.90;;;;;;5011265;28;20206;-73
2023/07/28 12:13:52;;;;;;;1.80;1.10;;;21.30;99.90;;;;;;5009882;28;20256;-73
2023/07/28 12:16:43;;;;;;;4.93;1.27;;;21.50;99.90;;;;;;5011249;28;20186;-73
2023/07/28 12:19:09;;;;;;;1.73;1.10;;;21.60;99.90;;;;;;5011488;28;20190;-73
2023/07/28 12:21:35;;;;;;;2.08;1.40;;;21.50;99.90;;;;;;5010868;28;20537;-72
2023/07/28 12:24:00;;;;;;;3.38;1.33;;;21.30;99.90;;;;;;5011242;28;20660;-72
2023/07/28 12:26:26;;;;;;;3.42;1.70;;;21.10;99.90;;;;;;5011263;28;20232;-72
2023/07/28 12:28:51;;;;;;;3.58;1.50;;;20.90;99.90;;;;;;5010873;28;20202;-70
2023/07/28 12:31:17;;;;;;;2.30;1.50;;;21.00;99.90;;;;;;5010940;28;20213;-72
2023/07/28 12:33:42;;;;;;;3.25;1.20;;;21.20;99.90;;;;;;5011014;28;20676;-74
2023/07/28 12:36:08;;;;;;;2.83;1.20;;;21.30;99.90;;;;;;5011252;28;20170;-82
2023/07/28 12:38:34;;;;;;;1.13;0.70;;;21.40;99.90;;;;;;5013733;28;20663;-76
2023/07/28 12:40:59;;;;;;;2.25;1.00;;;21.00;99.90;;;;;;5002717;28;20258;-74
2023/07/28 12:43:25;;;;;;;1.88;1.05;;;21.40;99.90;;;;;;4994168;28;20179;-77
2023/07/28 12:45:53;;;;;;;3.50;0.90;;;22.10;99.90;;;;;;4995322;28;20177;-77
2023/07/28 12:48:19;;;;;;;3.75;0.98;;;22.20;99.90;;;;;;4995404;28;20164;-77
2023/07/28 12:50:44;;;;;;;1.30;0.98;;;22.80;99.90;;;;;;4997248;28;20224;-76
2023/07/28 12:53:10;;;;;;;0.90;0.80;;;22.80;99.90;;;;;;5015503;28;20175;-85